Flight Track Log - Related Links

Times and Time Zones

All times are in EDT time to prevent confusion due to time zone crossing. See the UAL1259 flight status page for this flight to view local times or setup timezone preferences in your user account.

Time Position Orientation Groundspeed Altitude Reporting Facility
EDT Latitude Longitude Course Direction KTS MPH feet Rate Location/Type
Mon 05:37:20 PM 39.8500 -104.7500 298° West 231 266 6,700  Level Denver TRACON
Mon 05:38:20 PM 39.8833 -104.8333 298° West 249 287 7,900 1,402 Climbing Denver TRACON
Mon 05:39:07 PM 39.8981 -104.8978 287° West 268 308 9,200 1,587 Climbing Denver Center
Mon 05:40:21 PM 39.9100 -105.0044 278° West 299 344 11,100 1,941 Climbing Denver Center
Mon 05:41:23 PM 39.9239 -105.1525 277° West 336 387 13,600 2,294 Climbing Denver Center
Mon 05:42:37 PM 39.9356 -105.2767 277° West 344 396 16,300 2,338 Climbing Denver Center
Mon 05:43:39 PM 39.9500 -105.4350 277° West 361 415 18,900 2,565 Climbing Denver Center
Mon 05:44:41 PM 39.9658 -105.5786 278° West 373 429 21,600 2,371 Climbing Denver Center
Mon 05:45:43 PM 39.9764 -105.7133 276° West 377 434 23,800 1,887 Climbing Denver Center
Mon 05:46:45 PM 39.9708 -105.8542 267° West 374 430 25,500 1,161 Climbing Denver Center
Mon 05:47:47 PM 39.9808 -105.9994 275° West 399 459 26,200 537 Climbing Denver Center
Mon 05:48:48 PM 39.9867 -106.1269 273° West 429 494 26,600 889 Climbing Denver Center
Mon 05:50:02 PM 39.9975 -106.3239 274° West 452 520 28,200 1,500 Climbing Denver Center
Mon 05:51:04 PM 39.9978 -106.5125 270° West 450 518 30,000 1,728 Climbing Denver Center
Mon 05:52:07 PM 39.9778 -106.7122 263° West 449 517 31,800 1,645 Climbing Denver Center
Mon 05:53:08 PM 39.9644 -106.8650 264° West 446 513 33,400 1,073 Climbing Denver Center
Mon 05:54:10 PM 39.9492 -107.0253 263° West 440 506 34,000 290 Climbing Denver Center
Mon 05:55:12 PM 39.9356 -107.1842 264° West 442 509 34,000  Level Denver Center
Mon 05:56:14 PM 39.9203 -107.3442 263° West 438 504 34,000  Level Denver Center
Mon 05:57:16 PM 39.9017 -107.5194 262° West 438 504 34,000  Level Denver Center
Mon 05:58:30 PM 39.8869 -107.6686 263° West 435 501 34,000  Level Denver Center
Mon 05:59:31 PM 39.8694 -107.8433 263° West 438 504 34,000  Level Denver Center
Mon 06:00:34 PM 39.8503 -108.0419 263° West 433 498 34,000  Level Denver Center
Mon 06:01:36 PM 39.8353 -108.1886 262° West 423 487 34,000  Level Denver Center
Mon 06:02:37 PM 39.8181 -108.3364 261° West 432 497 34,000  Level Denver Center
Mon 06:03:39 PM 39.8014 -108.5061 263° West 421 484 34,000  Level Denver Center
Mon 06:04:41 PM 39.7864 -108.6528 262° West 429 494 34,000 242 Level Denver Center
Mon 06:05:43 PM 39.7678 -108.8253 262° West 442 509 34,500 882 Climbing Denver Center
Mon 06:06:57 PM 39.7483 -108.9972 262° West 437 503 36,000 662 Climbing Denver Center
Mon 06:07:59 PM 39.7283 -109.1664 261° West 428 493 36,000  Level Denver Center
Mon 06:08:36 PM 39.7172 -109.2622 261° West 425 489 36,000  Level Salt Lake Center
Mon 06:09:38 PM 39.6983 -109.4317 262° West 425 489 36,000  Level Salt Lake Center
Mon 06:10:03 PM 39.6931 -109.4803 262° West 425 489 36,000  Level Denver Center
Mon 06:11:05 PM 39.6725 -109.6483 261° West 423 487 36,000  Level Denver Center
Mon 06:11:41 PM 39.6617 -109.7467 262° West 427 491 36,000  Level Salt Lake Center
Mon 06:12:43 PM 39.6444 -109.8931 261° West 429 494 36,000  Level Salt Lake Center
Mon 06:13:44 PM 39.6267 -110.0400 261° West 430 495 36,000  Level Salt Lake Center
Mon 06:14:46 PM 39.6058 -110.2125 261° West 432 497 36,000  Level Salt Lake Center
Mon 06:15:48 PM 39.5889 -110.3611 262° West 434 499 36,000  Level Salt Lake Center
Mon 06:16:49 PM 39.5675 -110.5303 261° West 428 493 36,000  Level Salt Lake Center
Mon 06:17:51 PM 39.5497 -110.6733 261° West 422 486 36,000  Level Salt Lake Center
Mon 06:18:52 PM 39.5281 -110.8419 261° West 424 488 36,000  Level Salt Lake Center
Mon 06:19:54 PM 39.5108 -110.9864 261° West 424 488 36,000  Level Salt Lake Center
Mon 06:20:56 PM 39.4906 -111.1347 260° West 434 499 36,000  Level Salt Lake Center
Mon 06:21:57 PM 39.4700 -111.2936 261° West 436 502 36,000  Level Salt Lake Center
Mon 06:22:59 PM 39.4506 -111.4458 261° West 430 495 36,000  Level Salt Lake Center
Mon 06:24:00 PM 39.4294 -111.5972 260° West 429 494 36,000  Level Salt Lake Center
Mon 06:25:02 PM 39.4031 -111.7800 259° West 432 497 36,000  Level Salt Lake Center
Mon 06:26:03 PM 39.3822 -111.9322 260° West 432 497 36,000  Level Salt Lake Center
Mon 06:27:05 PM 39.3619 -112.0850 260° West 432 497 36,000  Level Salt Lake Center
Mon 06:28:07 PM 39.3400 -112.2386 260° West 436 502 36,000  Level Salt Lake Center
Mon 06:29:08 PM 39.3203 -112.3942 261° West 439 505 36,000  Level Salt Lake Center
Mon 06:30:10 PM 39.2975 -112.5481 259° West 439 505 36,000  Level Salt Lake Center
Mon 06:31:11 PM 39.2597 -112.7022 252° West 433 498 36,000  Level Salt Lake Center
Mon 06:32:13 PM 39.2256 -112.8472 253° West 428 493 36,000  Level Salt Lake Center
Mon 06:33:14 PM 39.1922 -112.9975 254° West 436 502 36,000  Level Salt Lake Center
Mon 06:34:16 PM 39.1581 -113.1425 253° West 429 494 36,000  Level Salt Lake Center
Mon 06:35:17 PM 39.1167 -113.3219 253° West 434 499 36,000  Level Salt Lake Center
Mon 06:36:19 PM 39.0811 -113.4719 253° West 438 504 36,000  Level Salt Lake Center
Mon 06:37:20 PM 39.0469 -113.6206 254° West 436 502 36,000  Level Salt Lake Center
Mon 06:38:22 PM 39.0117 -113.7697 253° West 438 504 36,000  Level Salt Lake Center
Mon 06:39:23 PM 38.9769 -113.9150 253° West 430 495 36,000  Level Salt Lake Center
Mon 06:40:25 PM 38.9419 -114.0617 253° West 433 498 36,000  Level Salt Lake Center
Mon 06:41:26 PM 38.9064 -114.2119 253° West 439 505 36,000  Level Salt Lake Center
Mon 06:42:28 PM 38.8708 -114.3600 253° West 436 502 36,000  Level Salt Lake Center
Mon 06:43:29 PM 38.8264 -114.5403 252° West 443 510 36,000  Level Salt Lake Center
Mon 06:44:31 PM 38.7906 -114.6867 253° West 436 502 36,000  Level Salt Lake Center
Mon 06:45:32 PM 38.7542 -114.8358 253° West 437 503 36,000  Level Salt Lake Center
Mon 06:46:34 PM 38.7164 -114.9825 252° West 436 502 36,000  Level Salt Lake Center
Mon 06:47:35 PM 38.6778 -115.1325 252° West 442 509 36,000  Level Salt Lake Center
Mon 06:48:37 PM 38.6403 -115.2825 252° West 443 510 36,000  Level Salt Lake Center
Mon 06:49:38 PM 38.5992 -115.4472 252° West 443 510 36,000  Level Salt Lake Center
Mon 06:50:39 PM 38.5617 -115.5967 252° West 442 509 36,000  Level Salt Lake Center
Mon 06:51:41 PM 38.5233 -115.7458 252° West 442 509 36,000  Level Salt Lake Center
Mon 06:52:42 PM 38.4850 -115.8947 252° West 442 509 36,000  Level Salt Lake Center
Mon 06:53:44 PM 38.4447 -116.0447 251° West 447 514 36,000  Level Salt Lake Center
Mon 06:54:45 PM 38.4064 -116.1933 252° West 443 510 36,000  Level Salt Lake Center
Mon 06:55:46 PM 38.3678 -116.3425 252° West 444 511 36,000  Level Salt Lake Center
Mon 06:56:22 PM 38.3444 -116.4317 252° West 444 511 36,000  Level Oakland Center
Mon 06:57:23 PM 38.2975 -116.6092 251° West 442 509 36,000  Level Oakland Center
Mon 06:57:49 PM 38.2819 -116.6692 252° West 443 510 36,000  Level Salt Lake Center
Mon 06:58:51 PM 38.2414 -116.8183 251° West 445 512 36,000  Level Salt Lake Center
Mon 06:59:26 PM 38.2178 -116.9075 251° West 446 513 36,000  Level Oakland Center
Mon 07:00:27 PM 38.1778 -117.0564 251° West 447 514 36,000  Level Oakland Center
Mon 07:01:28 PM 38.1386 -117.1956 250° West 453 521 36,000  Level Oakland Center
Mon 07:02:29 PM 38.0947 -117.3758 253° West 459 528 36,000  Level Oakland Center
Mon 07:03:31 PM 38.0603 -117.5269 254° West 449 517 36,000  Level Oakland Center
Mon 07:04:32 PM 38.0242 -117.6806 253° West 452 520 36,000  Level Oakland Center
Mon 07:05:33 PM 37.9958 -117.8344 257° West 451 519 36,000  Level Oakland Center
Mon 07:06:34 PM 37.9797 -117.9947 263° West 458 527 36,000  Level Oakland Center
Mon 07:07:36 PM 37.9633 -118.1506 262° West 449 517 36,000  Level Oakland Center
Mon 07:08:37 PM 37.9453 -118.3083 262° West 450 518 36,000  Level Oakland Center
Mon 07:09:38 PM 37.9281 -118.4656 262° West 452 520 36,000  Level Oakland Center
Mon 07:10:39 PM 37.9108 -118.6214 262° West 448 516 36,000  Level Oakland Center
Mon 07:11:40 PM 37.8922 -118.7767 261° West 447 514 36,000  Level Oakland Center
Mon 07:12:42 PM 37.8769 -118.9333 263° West 448 516 36,000  Level Oakland Center
Mon 07:13:43 PM 37.8561 -119.1078 261° West 452 520 36,000  Level Oakland Center
Mon 07:14:44 PM 37.8375 -119.2664 262° West 455 524 36,000  Level Oakland Center
Mon 07:15:45 PM 37.8200 -119.4233 262° West 453 521 36,000  Level Oakland Center
Mon 07:16:46 PM 37.8006 -119.5800 261° West 451 519 36,000 -146 Level Oakland Center
Mon 07:17:48 PM 37.7814 -119.7400 261° West 459 528 35,700 -634 Descending Oakland Center
Mon 07:18:49 PM 37.7625 -119.8947 261° West 449 517 34,700 -984 Descending Oakland Center
Mon 07:19:50 PM 37.7447 -120.0478 262° West 445 512 33,700 -1,328 Descending Oakland Center
Mon 07:20:51 PM 37.7244 -120.2011 261° West 441 507 32,000 -1,721 Descending Oakland Center
Mon 07:21:52 PM 37.7011 -120.3897 261° West 448 516 30,200 -2,803 Descending Oakland Center
Mon 07:22:53 PM 37.6808 -120.5486 261° West 454 522 26,300 -2,066 Descending Oakland Center
Mon 07:23:54 PM 37.6622 -120.6928 261° West 422 486 26,000 -1,082 Descending Oakland Center
Mon 07:24:55 PM 37.6447 -120.8217 260° West 376 433 24,100 -2,634 Descending Oakland Center
Mon 07:25:57 PM 37.6275 -120.9553 261° West 383 441 20,600 -3,450 Descending Oakland Center
Mon 07:26:15 PM 37.6167 -121.0000 253° West 398 458 19,500 -2,538 Descending Northern Cal TRACON
Mon 07:27:15 PM 37.6000 -121.1333 261° West 372 428 17,300 -2,050 Descending Northern Cal TRACON
Mon 07:28:15 PM 37.6000 -121.2500 270° West 348 400 15,400 -1,800 Descending Northern Cal TRACON
Mon 07:29:15 PM 37.5833 -121.3667 260° West 338 389 13,700 -1,600 Descending Northern Cal TRACON
Mon 07:30:15 PM 37.5500 -121.4833 250° West 330 380 12,200 -1,300 Descending Northern Cal TRACON
Mon 07:31:15 PM 37.5333 -121.6000 260° West 313 360 11,100 -895 Descending Northern Cal TRACON
Mon 07:32:09 PM 37.5167 -121.6833 256° West 291 335 10,500 -1,158 Descending Northern Cal TRACON
Mon 07:33:09 PM 37.5000 -121.7833 258° West 288 331 8,900 -1,250 Descending Northern Cal TRACON
Mon 07:34:09 PM 37.4833 -121.8667 256° West 278 320 8,000 -1,150 Descending Northern Cal TRACON
Mon 07:35:09 PM 37.5000 -121.9667 282° West 261 300 6,600 -1,100 Descending Northern Cal TRACON
Mon 07:36:09 PM 37.5167 -122.0333 288° West 224 258 5,800 -1,150 Descending Northern Cal TRACON
Mon 07:37:09 PM 37.5333 -122.1167 284° West 219 252 4,300 -1,500 Descending Northern Cal TRACON
Mon 07:38:09 PM 37.5667 -122.1833 302° West 227 261 2,800 -1,350 Descending Northern Cal TRACON
Mon 07:39:09 PM 37.5833 -122.2500 288° West 185 213 1,600 -1,200 Descending Northern Cal TRACON

Login

Don't have an account? Register now (free) for customized features, flight alerts, and more!